sensor_id;sensor_type;location;lat;lon;timestamp;P1;durP1;ratioP1;P2;durP2;ratioP2
16826;SDS011;8530;49.540;8.576;2023-03-19T00:02:03;8.70;;;5.80;;
16826;SDS011;8530;49.540;8.576;2023-03-19T00:04:30;6.07;;;4.80;;
16826;SDS011;8530;49.540;8.576;2023-03-19T00:06:57;7.47;;;5.30;;
16826;SDS011;8530;49.540;8.576;2023-03-19T00:09:25;8.03;;;5.60;;
16826;SDS011;8530;49.540;8.576;2023-03-19T00:11:52;13.93;;;6.13;;
16826;SDS011;8530;49.540;8.576;2023-03-19T00:14:18;12.70;;;4.80;;
16826;SDS011;8530;49.540;8.576;2023-03-19T00:16:45;6.87;;;4.50;;
16826;SDS011;8530;49.540;8.576;2023-03-19T00:19:12;6.37;;;4.93;;
16826;SDS011;8530;49.540;8.576;2023-03-19T00:21:38;11.20;;;5.73;;
16826;SDS011;8530;49.540;8.576;2023-03-19T00:24:05;6.93;;;5.37;;
16826;SDS011;8530;49.540;8.576;2023-03-19T00:26:35;7.53;;;5.87;;
16826;SDS011;8530;49.540;8.576;2023-03-19T00:29:02;12.90;;;9.10;;
16826;SDS011;8530;49.540;8.576;2023-03-19T00:31:29;11.10;;;7.47;;
16826;SDS011;8530;49.540;8.576;2023-03-19T00:33:57;8.53;;;5.83;;
16826;SDS011;8530;49.540;8.576;2023-03-19T00:36:24;13.37;;;5.70;;
16826;SDS011;8530;49.540;8.576;2023-03-19T00:38:52;9.43;;;5.10;;
16826;SDS011;8530;49.540;8.576;2023-03-19T00:41:19;7.37;;;5.10;;
16826;SDS011;8530;49.540;8.576;2023-03-19T00:43:49;6.63;;;4.57;;
16826;SDS011;8530;49.540;8.576;2023-03-19T00:46:18;7.80;;;5.87;;
16826;SDS011;8530;49.540;8.576;2023-03-19T00:48:44;10.10;;;6.90;;
16826;SDS011;8530;49.540;8.576;2023-03-19T00:51:11;11.07;;;6.80;;
16826;SDS011;8530;49.540;8.576;2023-03-19T00:53:39;8.93;;;5.53;;
16826;SDS011;8530;49.540;8.576;2023-03-19T00:56:07;8.80;;;6.10;;
16826;SDS011;8530;49.540;8.576;2023-03-19T00:58:34;7.77;;;5.60;;
16826;SDS011;8530;49.540;8.576;2023-03-19T01:01:04;10.70;;;6.20;;
16826;SDS011;8530;49.540;8.576;2023-03-19T01:03:31;10.93;;;5.83;;
16826;SDS011;8530;49.540;8.576;2023-03-19T01:05:57;9.67;;;6.33;;
16826;SDS011;8530;49.540;8.576;2023-03-19T01:08:24;7.20;;;5.53;;
16826;SDS011;8530;49.540;8.576;2023-03-19T01:10:51;8.83;;;5.57;;
16826;SDS011;8530;49.540;8.576;2023-03-19T01:13:18;16.03;;;6.27;;
16826;SDS011;8530;49.540;8.576;2023-03-19T01:15:45;11.10;;;6.43;;
16826;SDS011;8530;49.540;8.576;2023-03-19T01:18:13;7.07;;;5.57;;
16826;SDS011;8530;49.540;8.576;2023-03-19T01:20:40;9.67;;;7.30;;
16826;SDS011;8530;49.540;8.576;2023-03-19T01:23:07;9.53;;;6.40;;
16826;SDS011;8530;49.540;8.576;2023-03-19T01:25:34;11.20;;;7.63;;
16826;SDS011;8530;49.540;8.576;2023-03-19T01:28:00;9.57;;;6.43;;
16826;SDS011;8530;49.540;8.576;2023-03-19T01:30:27;10.73;;;7.13;;
16826;SDS011;8530;49.540;8.576;2023-03-19T01:32:54;10.43;;;6.43;;
16826;SDS011;8530;49.540;8.576;2023-03-19T01:35:22;13.23;;;7.40;;
16826;SDS011;8530;49.540;8.576;2023-03-19T01:37:49;8.77;;;6.13;;
16826;SDS011;8530;49.540;8.576;2023-03-19T01:40:16;8.27;;;6.27;;
16826;SDS011;8530;49.540;8.576;2023-03-19T01:42:53;11.13;;;6.27;;
16826;SDS011;8530;49.540;8.576;2023-03-19T01:45:30;11.33;;;7.23;;
16826;SDS011;8530;49.540;8.576;2023-03-19T01:47:58;9.70;;;5.27;;
16826;SDS011;8530;49.540;8.576;2023-03-19T01:50:28;9.67;;;5.80;;
16826;SDS011;8530;49.540;8.576;2023-03-19T01:53:06;10.80;;;5.73;;
16826;SDS011;8530;49.540;8.576;2023-03-19T01:55:33;7.20;;;5.10;;
16826;SDS011;8530;49.540;8.576;2023-03-19T01:58:00;10.80;;;5.70;;
16826;SDS011;8530;49.540;8.576;2023-03-19T02:00:27;5.83;;;4.20;;
16826;SDS011;8530;49.540;8.576;2023-03-19T02:02:55;5.27;;;4.70;;
16826;SDS011;8530;49.540;8.576;2023-03-19T02:05:27;6.43;;;4.93;;
16826;SDS011;8530;49.540;8.576;2023-03-19T02:07:57;6.60;;;5.00;;
16826;SDS011;8530;49.540;8.576;2023-03-19T02:10:26;10.80;;;5.27;;
16826;SDS011;8530;49.540;8.576;2023-03-19T02:12:55;7.17;;;5.47;;
16826;SDS011;8530;49.540;8.576;2023-03-19T02:15:21;12.60;;;5.60;;
16826;SDS011;8530;49.540;8.576;2023-03-19T02:17:48;14.13;;;5.60;;
16826;SDS011;8530;49.540;8.576;2023-03-19T02:20:16;21.60;;;6.30;;
16826;SDS011;8530;49.540;8.576;2023-03-19T02:22:52;10.53;;;6.33;;
16826;SDS011;8530;49.540;8.576;2023-03-19T02:25:26;15.43;;;7.13;;
16826;SDS011;8530;49.540;8.576;2023-03-19T02:27:58;13.47;;;6.70;;
16826;SDS011;8530;49.540;8.576;2023-03-19T02:30:28;7.13;;;6.13;;
16826;SDS011;8530;49.540;8.576;2023-03-19T02:32:57;9.67;;;5.83;;
16826;SDS011;8530;49.540;8.576;2023-03-19T02:35:24;7.43;;;6.60;;
16826;SDS011;8530;49.540;8.576;2023-03-19T02:37:54;10.40;;;5.53;;
16826;SDS011;8530;49.540;8.576;2023-03-19T02:40:21;10.03;;;6.70;;
16826;SDS011;8530;49.540;8.576;2023-03-19T02:42:50;7.63;;;5.63;;
16826;SDS011;8530;49.540;8.576;2023-03-19T02:45:18;9.97;;;5.30;;
16826;SDS011;8530;49.540;8.576;2023-03-19T02:47:45;9.00;;;5.83;;
16826;SDS011;8530;49.540;8.576;2023-03-19T02:50:12;8.30;;;5.23;;
16826;SDS011;8530;49.540;8.576;2023-03-19T02:52:39;9.47;;;5.33;;
16826;SDS011;8530;49.540;8.576;2023-03-19T02:55:06;9.47;;;5.60;;
16826;SDS011;8530;49.540;8.576;2023-03-19T02:57:33;6.83;;;5.37;;
16826;SDS011;8530;49.540;8.576;2023-03-19T03:00:00;5.53;;;4.73;;
16826;SDS011;8530;49.540;8.576;2023-03-19T03:02:28;5.90;;;4.93;;
16826;SDS011;8530;49.540;8.576;2023-03-19T03:04:55;13.10;;;5.83;;
16826;SDS011;8530;49.540;8.576;2023-03-19T03:07:22;8.57;;;4.83;;
16826;SDS011;8530;49.540;8.576;2023-03-19T03:09:49;8.97;;;5.20;;
16826;SDS011;8530;49.540;8.576;2023-03-19T03:12:16;8.23;;;5.57;;
16826;SDS011;8530;49.540;8.576;2023-03-19T03:14:43;13.63;;;5.20;;
16826;SDS011;8530;49.540;8.576;2023-03-19T03:17:10;6.77;;;4.70;;
16826;SDS011;8530;49.540;8.576;2023-03-19T03:19:38;9.70;;;4.80;;
16826;SDS011;8530;49.540;8.576;2023-03-19T03:22:06;7.47;;;5.10;;
16826;SDS011;8530;49.540;8.576;2023-03-19T03:24:33;7.60;;;4.30;;
16826;SDS011;8530;49.540;8.576;2023-03-19T03:27:00;6.57;;;4.17;;
16826;SDS011;8530;49.540;8.576;2023-03-19T03:29:26;7.30;;;5.33;;
16826;SDS011;8530;49.540;8.576;2023-03-19T03:31:53;7.57;;;4.50;;
16826;SDS011;8530;49.540;8.576;2023-03-19T03:34:20;7.43;;;6.00;;
16826;SDS011;8530;49.540;8.576;2023-03-19T03:36:48;8.97;;;5.10;;
16826;SDS011;8530;49.540;8.576;2023-03-19T03:39:15;9.83;;;4.87;;
16826;SDS011;8530;49.540;8.576;2023-03-19T03:41:43;5.67;;;4.27;;
16826;SDS011;8530;49.540;8.576;2023-03-19T03:44:09;6.00;;;5.37;;
16826;SDS011;8530;49.540;8.576;2023-03-19T03:46:36;9.30;;;4.73;;
16826;SDS011;8530;49.540;8.576;2023-03-19T03:49:03;7.80;;;5.33;;
16826;SDS011;8530;49.540;8.576;2023-03-19T03:51:29;10.57;;;5.60;;
16826;SDS011;8530;49.540;8.576;2023-03-19T03:53:58;8.10;;;5.37;;
16826;SDS011;8530;49.540;8.576;2023-03-19T03:56:25;9.20;;;5.57;;
16826;SDS011;8530;49.540;8.576;2023-03-19T03:58:51;8.60;;;5.93;;
16826;SDS011;8530;49.540;8.576;2023-03-19T04:01:18;8.60;;;5.57;;
16826;SDS011;8530;49.540;8.576;2023-03-19T04:03:45;9.63;;;6.00;;
16826;SDS011;8530;49.540;8.576;2023-03-19T04:06:12;9.30;;;5.70;;
16826;SDS011;8530;49.540;8.576;2023-03-19T04:08:41;6.53;;;5.03;;
16826;SDS011;8530;49.540;8.576;2023-03-19T04:11:09;21.23;;;8.07;;
16826;SDS011;8530;49.540;8.576;2023-03-19T04:13:36;11.30;;;5.40;;
16826;SDS011;8530;49.540;8.576;2023-03-19T04:16:03;9.00;;;6.13;;
16826;SDS011;8530;49.540;8.576;2023-03-19T04:18:30;7.13;;;6.00;;
16826;SDS011;8530;49.540;8.576;2023-03-19T04:20:57;13.30;;;6.10;;
16826;SDS011;8530;49.540;8.576;2023-03-19T04:23:24;13.73;;;5.50;;
16826;SDS011;8530;49.540;8.576;2023-03-19T04:25:51;12.33;;;6.20;;
16826;SDS011;8530;49.540;8.576;2023-03-19T04:28:19;10.90;;;5.57;;
16826;SDS011;8530;49.540;8.576;2023-03-19T04:30:46;7.20;;;5.93;;
16826;SDS011;8530;49.540;8.576;2023-03-19T04:33:12;8.67;;;6.50;;
16826;SDS011;8530;49.540;8.576;2023-03-19T04:35:39;6.97;;;5.83;;
16826;SDS011;8530;49.540;8.576;2023-03-19T04:38:06;7.40;;;5.80;;
16826;SDS011;8530;49.540;8.576;2023-03-19T04:40:33;9.10;;;6.60;;
16826;SDS011;8530;49.540;8.576;2023-03-19T04:42:59;9.23;;;6.13;;
16826;SDS011;8530;49.540;8.576;2023-03-19T04:45:28;7.60;;;5.50;;
16826;SDS011;8530;49.540;8.576;2023-03-19T04:47:55;12.63;;;6.67;;
16826;SDS011;8530;49.540;8.576;2023-03-19T04:50:22;10.40;;;6.20;;
16826;SDS011;8530;49.540;8.576;2023-03-19T04:52:49;10.03;;;5.90;;
16826;SDS011;8530;49.540;8.576;2023-03-19T04:55:15;10.63;;;6.53;;
16826;SDS011;8530;49.540;8.576;2023-03-19T04:57:42;9.47;;;6.00;;
16826;SDS011;8530;49.540;8.576;2023-03-19T05:00:09;8.63;;;6.30;;
16826;SDS011;8530;49.540;8.576;2023-03-19T05:02:39;8.00;;;5.73;;
16826;SDS011;8530;49.540;8.576;2023-03-19T05:05:07;9.90;;;6.63;;
16826;SDS011;8530;49.540;8.576;2023-03-19T05:07:35;9.20;;;6.67;;
16826;SDS011;8530;49.540;8.576;2023-03-19T05:10:02;8.53;;;6.90;;
16826;SDS011;8530;49.540;8.576;2023-03-19T05:12:29;10.10;;;7.17;;
16826;SDS011;8530;49.540;8.576;2023-03-19T05:14:55;10.97;;;6.63;;
16826;SDS011;8530;49.540;8.576;2023-03-19T05:17:22;11.90;;;5.73;;
16826;SDS011;8530;49.540;8.576;2023-03-19T05:19:50;9.90;;;6.07;;
16826;SDS011;8530;49.540;8.576;2023-03-19T05:22:17;8.13;;;6.83;;
16826;SDS011;8530;49.540;8.576;2023-03-19T05:24:44;9.53;;;6.33;;
16826;SDS011;8530;49.540;8.576;2023-03-19T05:27:11;13.17;;;6.70;;
16826;SDS011;8530;49.540;8.576;2023-03-19T05:29:38;9.07;;;6.20;;
16826;SDS011;8530;49.540;8.576;2023-03-19T05:32:06;10.60;;;6.27;;
16826;SDS011;8530;49.540;8.576;2023-03-19T05:34:34;7.57;;;5.83;;
16826;SDS011;8530;49.540;8.576;2023-03-19T05:37:02;6.63;;;5.57;;
16826;SDS011;8530;49.540;8.576;2023-03-19T05:39:29;8.37;;;5.30;;
16826;SDS011;8530;49.540;8.576;2023-03-19T05:41:56;10.50;;;6.40;;
16826;SDS011;8530;49.540;8.576;2023-03-19T05:44:23;10.97;;;5.87;;
16826;SDS011;8530;49.540;8.576;2023-03-19T05:46:49;6.20;;;5.30;;
16826;SDS011;8530;49.540;8.576;2023-03-19T05:49:17;6.20;;;5.07;;
16826;SDS011;8530;49.540;8.576;2023-03-19T05:51:43;8.10;;;5.80;;
16826;SDS011;8530;49.540;8.576;2023-03-19T05:54:12;6.30;;;4.90;;
16826;SDS011;8530;49.540;8.576;2023-03-19T05:56:38;12.33;;;5.97;;
16826;SDS011;8530;49.540;8.576;2023-03-19T05:59:05;11.17;;;6.13;;
16826;SDS011;8530;49.540;8.576;2023-03-19T06:01:32;8.63;;;6.33;;
16826;SDS011;8530;49.540;8.576;2023-03-19T06:03:59;11.13;;;7.30;;
16826;SDS011;8530;49.540;8.576;2023-03-19T06:06:25;9.40;;;5.57;;
16826;SDS011;8530;49.540;8.576;2023-03-19T06:08:52;7.30;;;5.80;;
16826;SDS011;8530;49.540;8.576;2023-03-19T06:11:20;6.10;;;5.47;;
16826;SDS011;8530;49.540;8.576;2023-03-19T06:13:47;7.60;;;5.93;;
16826;SDS011;8530;49.540;8.576;2023-03-19T06:16:14;8.50;;;6.23;;
16826;SDS011;8530;49.540;8.576;2023-03-19T06:18:41;10.17;;;5.37;;
16826;SDS011;8530;49.540;8.576;2023-03-19T06:21:08;7.77;;;6.57;;
16826;SDS011;8530;49.540;8.576;2023-03-19T06:23:34;8.50;;;5.80;;
16826;SDS011;8530;49.540;8.576;2023-03-19T06:26:01;6.63;;;6.03;;
16826;SDS011;8530;49.540;8.576;2023-03-19T06:28:29;9.17;;;6.20;;
16826;SDS011;8530;49.540;8.576;2023-03-19T06:30:56;7.00;;;5.10;;
16826;SDS011;8530;49.540;8.576;2023-03-19T06:33:23;8.17;;;5.20;;
16826;SDS011;8530;49.540;8.576;2023-03-19T06:35:56;7.17;;;5.20;;
16826;SDS011;8530;49.540;8.576;2023-03-19T06:38:22;10.50;;;6.00;;
16826;SDS011;8530;49.540;8.576;2023-03-19T06:40:49;7.33;;;6.00;;
16826;SDS011;8530;49.540;8.576;2023-03-19T06:43:16;8.73;;;5.70;;
16826;SDS011;8530;49.540;8.576;2023-03-19T06:45:44;7.73;;;5.27;;
16826;SDS011;8530;49.540;8.576;2023-03-19T06:48:12;6.67;;;5.13;;
16826;SDS011;8530;49.540;8.576;2023-03-19T06:50:38;7.93;;;4.90;;
16826;SDS011;8530;49.540;8.576;2023-03-19T06:53:05;9.47;;;4.60;;
16826;SDS011;8530;49.540;8.576;2023-03-19T06:55:32;10.47;;;6.57;;
16826;SDS011;8530;49.540;8.576;2023-03-19T06:57:59;8.57;;;5.80;;
16826;SDS011;8530;49.540;8.576;2023-03-19T07:00:26;8.80;;;5.70;;
16826;SDS011;8530;49.540;8.576;2023-03-19T07:02:54;7.90;;;6.30;;
16826;SDS011;8530;49.540;8.576;2023-03-19T07:05:21;7.30;;;5.90;;
16826;SDS011;8530;49.540;8.576;2023-03-19T07:07:47;7.00;;;5.20;;
16826;SDS011;8530;49.540;8.576;2023-03-19T07:10:16;7.77;;;6.10;;
16826;SDS011;8530;49.540;8.576;2023-03-19T07:12:43;9.57;;;5.87;;
16826;SDS011;8530;49.540;8.576;2023-03-19T07:15:10;10.13;;;6.77;;
16826;SDS011;8530;49.540;8.576;2023-03-19T07:17:37;7.20;;;5.80;;
16826;SDS011;8530;49.540;8.576;2023-03-19T07:20:05;7.80;;;5.50;;
16826;SDS011;8530;49.540;8.576;2023-03-19T07:22:32;8.00;;;5.90;;
16826;SDS011;8530;49.540;8.576;2023-03-19T07:25:00;11.63;;;5.80;;
16826;SDS011;8530;49.540;8.576;2023-03-19T07:27:26;7.77;;;6.00;;
16826;SDS011;8530;49.540;8.576;2023-03-19T07:29:53;10.57;;;6.00;;
16826;SDS011;8530;49.540;8.576;2023-03-19T07:32:20;16.33;;;7.00;;
16826;SDS011;8530;49.540;8.576;2023-03-19T07:34:47;8.60;;;5.30;;
16826;SDS011;8530;49.540;8.576;2023-03-19T07:37:15;7.60;;;6.20;;
16826;SDS011;8530;49.540;8.576;2023-03-19T07:39:42;14.73;;;6.63;;
16826;SDS011;8530;49.540;8.576;2023-03-19T07:42:10;6.90;;;5.90;;
16826;SDS011;8530;49.540;8.576;2023-03-19T07:44:36;9.70;;;5.60;;
16826;SDS011;8530;49.540;8.576;2023-03-19T07:47:03;9.30;;;6.40;;
16826;SDS011;8530;49.540;8.576;2023-03-19T07:49:30;10.20;;;7.17;;
16826;SDS011;8530;49.540;8.576;2023-03-19T07:51:57;7.73;;;5.03;;
16826;SDS011;8530;49.540;8.576;2023-03-19T07:54:25;7.23;;;4.80;;
16826;SDS011;8530;49.540;8.576;2023-03-19T07:56:51;7.37;;;5.00;;
16826;SDS011;8530;49.540;8.576;2023-03-19T07:59:18;7.03;;;5.20;;
16826;SDS011;8530;49.540;8.576;2023-03-19T08:01:45;9.77;;;4.90;;
16826;SDS011;8530;49.540;8.576;2023-03-19T08:04:11;8.23;;;5.20;;
16826;SDS011;8530;49.540;8.576;2023-03-19T08:06:38;6.30;;;4.90;;
16826;SDS011;8530;49.540;8.576;2023-03-19T08:09:05;10.97;;;4.87;;
16826;SDS011;8530;49.540;8.576;2023-03-19T08:11:33;8.07;;;4.40;;
16826;SDS011;8530;49.540;8.576;2023-03-19T08:13:59;8.80;;;5.13;;
16826;SDS011;8530;49.540;8.576;2023-03-19T08:16:26;7.87;;;5.17;;
16826;SDS011;8530;49.540;8.576;2023-03-19T08:18:53;6.20;;;4.30;;
16826;SDS011;8530;49.540;8.576;2023-03-19T08:21:20;12.80;;;4.60;;
16826;SDS011;8530;49.540;8.576;2023-03-19T08:23:46;5.67;;;4.27;;
16826;SDS011;8530;49.540;8.576;2023-03-19T08:26:14;4.13;;;3.37;;
16826;SDS011;8530;49.540;8.576;2023-03-19T08:28:42;6.93;;;4.23;;
16826;SDS011;8530;49.540;8.576;2023-03-19T08:31:09;11.80;;;6.50;;
16826;SDS011;8530;49.540;8.576;2023-03-19T08:33:37;6.33;;;4.53;;
16826;SDS011;8530;49.540;8.576;2023-03-19T08:36:05;6.50;;;4.73;;
16826;SDS011;8530;49.540;8.576;2023-03-19T08:38:35;9.07;;;4.77;;
16826;SDS011;8530;49.540;8.576;2023-03-19T08:41:03;5.80;;;5.00;;
16826;SDS011;8530;49.540;8.576;2023-03-19T08:43:30;9.03;;;4.77;;
16826;SDS011;8530;49.540;8.576;2023-03-19T08:45:59;8.97;;;5.20;;
16826;SDS011;8530;49.540;8.576;2023-03-19T08:48:26;7.87;;;5.47;;
16826;SDS011;8530;49.540;8.576;2023-03-19T08:50:53;8.27;;;5.37;;
16826;SDS011;8530;49.540;8.576;2023-03-19T08:53:21;7.47;;;4.80;;
16826;SDS011;8530;49.540;8.576;2023-03-19T08:55:51;12.73;;;5.37;;
16826;SDS011;8530;49.540;8.576;2023-03-19T08:58:18;8.90;;;5.60;;
16826;SDS011;8530;49.540;8.576;2023-03-19T09:00:45;9.30;;;5.00;;
16826;SDS011;8530;49.540;8.576;2023-03-19T09:03:14;12.07;;;6.23;;
16826;SDS011;8530;49.540;8.576;2023-03-19T09:05:42;8.87;;;5.40;;
16826;SDS011;8530;49.540;8.576;2023-03-19T09:08:09;5.90;;;4.83;;
16826;SDS011;8530;49.540;8.576;2023-03-19T09:10:36;5.27;;;3.30;;
16826;SDS011;8530;49.540;8.576;2023-03-19T09:13:03;5.53;;;3.70;;
16826;SDS011;8530;49.540;8.576;2023-03-19T09:15:30;3.70;;;2.60;;
16826;SDS011;8530;49.540;8.576;2023-03-19T09:17:57;6.40;;;3.60;;
16826;SDS011;8530;49.540;8.576;2023-03-19T09:20:25;5.57;;;3.90;;
16826;SDS011;8530;49.540;8.576;2023-03-19T09:22:51;8.87;;;4.10;;
16826;SDS011;8530;49.540;8.576;2023-03-19T09:25:18;5.73;;;4.37;;
16826;SDS011;8530;49.540;8.576;2023-03-19T09:27:46;5.83;;;3.50;;
16826;SDS011;8530;49.540;8.576;2023-03-19T09:30:13;5.70;;;2.83;;
16826;SDS011;8530;49.540;8.576;2023-03-19T09:32:40;3.83;;;2.80;;
16826;SDS011;8530;49.540;8.576;2023-03-19T09:35:07;8.90;;;3.00;;
16826;SDS011;8530;49.540;8.576;2023-03-19T09:37:36;5.83;;;2.87;;
16826;SDS011;8530;49.540;8.576;2023-03-19T09:40:03;4.37;;;2.30;;
16826;SDS011;8530;49.540;8.576;2023-03-19T09:42:37;3.40;;;2.50;;
16826;SDS011;8530;49.540;8.576;2023-03-19T09:45:14;4.97;;;3.27;;
16826;SDS011;8530;49.540;8.576;2023-03-19T09:47:42;4.13;;;3.20;;
16826;SDS011;8530;49.540;8.576;2023-03-19T09:50:11;5.03;;;2.60;;
16826;SDS011;8530;49.540;8.576;2023-03-19T09:52:41;6.90;;;2.70;;
16826;SDS011;8530;49.540;8.576;2023-03-19T09:55:13;6.07;;;3.10;;
16826;SDS011;8530;49.540;8.576;2023-03-19T09:57:48;10.30;;;3.67;;
16826;SDS011;8530;49.540;8.576;2023-03-19T10:00:18;8.47;;;4.03;;
16826;SDS011;8530;49.540;8.576;2023-03-19T10:02:49;14.00;;;6.40;;
16826;SDS011;8530;49.540;8.576;2023-03-19T10:05:21;18.33;;;7.63;;
16826;SDS011;8530;49.540;8.576;2023-03-19T10:08:04;5.67;;;3.20;;
16826;SDS011;8530;49.540;8.576;2023-03-19T10:10:50;9.13;;;2.87;;
16826;SDS011;8530;49.540;8.576;2023-03-19T10:13:31;5.57;;;2.67;;
16826;SDS011;8530;49.540;8.576;2023-03-19T10:16:08;5.67;;;2.63;;
16826;SDS011;8530;49.540;8.576;2023-03-19T10:18:39;4.90;;;3.00;;
16826;SDS011;8530;49.540;8.576;2023-03-19T10:21:10;4.17;;;3.10;;
16826;SDS011;8530;49.540;8.576;2023-03-19T10:23:44;4.33;;;3.30;;
16826;SDS011;8530;49.540;8.576;2023-03-19T10:26:14;3.30;;;2.20;;
16826;SDS011;8530;49.540;8.576;2023-03-19T10:28:43;4.83;;;2.50;;
16826;SDS011;8530;49.540;8.576;2023-03-19T10:31:23;4.60;;;2.37;;
16826;SDS011;8530;49.540;8.576;2023-03-19T10:33:56;6.33;;;2.80;;
16826;SDS011;8530;49.540;8.576;2023-03-19T10:36:33;7.03;;;3.17;;
16826;SDS011;8530;49.540;8.576;2023-03-19T10:39:03;4.20;;;2.60;;
16826;SDS011;8530;49.540;8.576;2023-03-19T10:41:40;6.00;;;3.47;;
16826;SDS011;8530;49.540;8.576;2023-03-19T10:44:16;4.90;;;2.30;;
16826;SDS011;8530;49.540;8.576;2023-03-19T10:46:52;5.70;;;2.60;;
16826;SDS011;8530;49.540;8.576;2023-03-19T10:49:22;5.40;;;2.90;;
16826;SDS011;8530;49.540;8.576;2023-03-19T10:51:50;3.70;;;3.00;;
16826;SDS011;8530;49.540;8.576;2023-03-19T10:54:20;4.77;;;2.87;;
16826;SDS011;8530;49.540;8.576;2023-03-19T10:56:48;7.50;;;2.73;;
16826;SDS011;8530;49.540;8.576;2023-03-19T10:59:23;3.33;;;2.60;;
16826;SDS011;8530;49.540;8.576;2023-03-19T11:01:55;6.07;;;2.63;;
16826;SDS011;8530;49.540;8.576;2023-03-19T11:04:23;4.30;;;3.00;;
16826;SDS011;8530;49.540;8.576;2023-03-19T11:06:52;9.97;;;2.57;;
16826;SDS011;8530;49.540;8.576;2023-03-19T11:09:24;3.70;;;2.47;;
16826;SDS011;8530;49.540;8.576;2023-03-19T11:11:58;6.60;;;2.90;;
16826;SDS011;8530;49.540;8.576;2023-03-19T11:14:33;6.60;;;3.47;;
16826;SDS011;8530;49.540;8.576;2023-03-19T11:17:03;6.70;;;2.80;;
16826;SDS011;8530;49.540;8.576;2023-03-19T11:19:33;4.80;;;2.87;;
16826;SDS011;8530;49.540;8.576;2023-03-19T11:22:09;4.20;;;2.70;;
16826;SDS011;8530;49.540;8.576;2023-03-19T11:24:47;5.40;;;2.40;;
16826;SDS011;8530;49.540;8.576;2023-03-19T11:27:16;7.23;;;2.97;;
16826;SDS011;8530;49.540;8.576;2023-03-19T11:29:44;9.53;;;3.00;;
16826;SDS011;8530;49.540;8.576;2023-03-19T11:32:27;2.63;;;2.07;;
16826;SDS011;8530;49.540;8.576;2023-03-19T11:35:07;3.63;;;2.70;;
16826;SDS011;8530;49.540;8.576;2023-03-19T11:37:45;5.50;;;2.80;;
16826;SDS011;8530;49.540;8.576;2023-03-19T11:40:31;3.93;;;2.53;;
16826;SDS011;8530;49.540;8.576;2023-03-19T11:43:23;6.67;;;2.83;;
16826;SDS011;8530;49.540;8.576;2023-03-19T11:46:06;4.27;;;2.60;;
16826;SDS011;8530;49.540;8.576;2023-03-19T11:48:44;3.87;;;2.40;;
16826;SDS011;8530;49.540;8.576;2023-03-19T11:51:29;8.57;;;3.23;;
16826;SDS011;8530;49.540;8.576;2023-03-19T11:54:03;3.80;;;2.80;;
16826;SDS011;8530;49.540;8.576;2023-03-19T11:56:38;4.73;;;2.30;;
16826;SDS011;8530;49.540;8.576;2023-03-19T11:59:16;6.00;;;2.23;;
16826;SDS011;8530;49.540;8.576;2023-03-19T12:02:16;4.93;;;2.97;;
16826;SDS011;8530;49.540;8.576;2023-03-19T12:07:44;3.77;;;2.60;;
16826;SDS011;8530;49.540;8.576;2023-03-19T12:10:26;6.33;;;4.00;;
16826;SDS011;8530;49.540;8.576;2023-03-19T12:13:02;2.53;;;2.17;;
16826;SDS011;8530;49.540;8.576;2023-03-19T12:15:37;4.20;;;2.57;;
16826;SDS011;8530;49.540;8.576;2023-03-19T12:18:13;5.43;;;3.60;;
16826;SDS011;8530;49.540;8.576;2023-03-19T12:20:51;5.30;;;3.17;;
16826;SDS011;8530;49.540;8.576;2023-03-19T12:23:28;7.30;;;2.87;;
16826;SDS011;8530;49.540;8.576;2023-03-19T12:26:05;4.70;;;2.77;;
16826;SDS011;8530;49.540;8.576;2023-03-19T12:28:36;3.10;;;2.37;;
16826;SDS011;8530;49.540;8.576;2023-03-19T12:31:22;6.07;;;3.67;;
16826;SDS011;8530;49.540;8.576;2023-03-19T12:34:00;3.43;;;2.87;;
16826;SDS011;8530;49.540;8.576;2023-03-19T12:36:37;4.10;;;2.50;;
16826;SDS011;8530;49.540;8.576;2023-03-19T12:39:11;4.00;;;3.17;;
16826;SDS011;8530;49.540;8.576;2023-03-19T12:41:44;8.13;;;3.07;;
16826;SDS011;8530;49.540;8.576;2023-03-19T12:44:16;5.63;;;3.57;;
16826;SDS011;8530;49.540;8.576;2023-03-19T12:46:48;6.40;;;3.60;;
16826;SDS011;8530;49.540;8.576;2023-03-19T12:49:22;9.47;;;3.77;;
16826;SDS011;8530;49.540;8.576;2023-03-19T12:51:55;4.63;;;2.97;;
16826;SDS011;8530;49.540;8.576;2023-03-19T12:54:26;10.97;;;3.73;;
16826;SDS011;8530;49.540;8.576;2023-03-19T12:56:57;4.40;;;2.53;;
16826;SDS011;8530;49.540;8.576;2023-03-19T12:59:29;4.17;;;2.80;;
16826;SDS011;8530;49.540;8.576;2023-03-19T13:02:02;7.60;;;4.13;;
16826;SDS011;8530;49.540;8.576;2023-03-19T13:04:42;4.90;;;3.33;;
16826;SDS011;8530;49.540;8.576;2023-03-19T13:07:19;6.30;;;3.10;;
16826;SDS011;8530;49.540;8.576;2023-03-19T13:09:52;5.00;;;2.80;;
16826;SDS011;8530;49.540;8.576;2023-03-19T13:12:26;4.97;;;3.50;;
16826;SDS011;8530;49.540;8.576;2023-03-19T13:14:58;3.80;;;2.87;;
16826;SDS011;8530;49.540;8.576;2023-03-19T13:17:30;7.00;;;3.60;;
16826;SDS011;8530;49.540;8.576;2023-03-19T13:20:08;6.00;;;2.97;;
16826;SDS011;8530;49.540;8.576;2023-03-19T13:22:46;5.17;;;2.73;;
16826;SDS011;8530;49.540;8.576;2023-03-19T13:25:19;6.37;;;2.70;;
16826;SDS011;8530;49.540;8.576;2023-03-19T13:27:53;6.87;;;2.93;;
16826;SDS011;8530;49.540;8.576;2023-03-19T13:30:22;3.73;;;2.53;;
16826;SDS011;8530;49.540;8.576;2023-03-19T13:32:51;3.93;;;2.70;;
16826;SDS011;8530;49.540;8.576;2023-03-19T13:35:32;4.07;;;3.07;;
16826;SDS011;8530;49.540;8.576;2023-03-19T13:38:03;4.60;;;2.70;;
16826;SDS011;8530;49.540;8.576;2023-03-19T13:40:40;4.30;;;2.93;;
16826;SDS011;8530;49.540;8.576;2023-03-19T13:46:28;4.23;;;2.80;;
16826;SDS011;8530;49.540;8.576;2023-03-19T13:49:21;6.20;;;3.37;;
16826;SDS011;8530;49.540;8.576;2023-03-19T13:51:58;8.80;;;3.10;;
16826;SDS011;8530;49.540;8.576;2023-03-19T13:54:31;6.87;;;4.20;;
16826;SDS011;8530;49.540;8.576;2023-03-19T13:57:04;7.17;;;5.33;;
16826;SDS011;8530;49.540;8.576;2023-03-19T13:59:44;5.23;;;3.97;;
16826;SDS011;8530;49.540;8.576;2023-03-19T14:05:15;6.40;;;4.23;;
16826;SDS011;8530;49.540;8.576;2023-03-19T14:07:45;4.23;;;3.30;;
16826;SDS011;8530;49.540;8.576;2023-03-19T14:10:18;3.93;;;3.57;;
16826;SDS011;8530;49.540;8.576;2023-03-19T14:12:59;4.03;;;2.80;;
16826;SDS011;8530;49.540;8.576;2023-03-19T14:15:30;3.60;;;2.90;;
16826;SDS011;8530;49.540;8.576;2023-03-19T14:17:59;5.40;;;3.47;;
16826;SDS011;8530;49.540;8.576;2023-03-19T14:20:30;5.70;;;3.80;;
16826;SDS011;8530;49.540;8.576;2023-03-19T14:23:09;7.63;;;3.30;;
16826;SDS011;8530;49.540;8.576;2023-03-19T14:25:52;4.40;;;3.27;;
16826;SDS011;8530;49.540;8.576;2023-03-19T14:28:23;3.57;;;3.10;;
16826;SDS011;8530;49.540;8.576;2023-03-19T14:30:57;8.13;;;3.80;;
16826;SDS011;8530;49.540;8.576;2023-03-19T14:33:27;6.27;;;3.37;;
16826;SDS011;8530;49.540;8.576;2023-03-19T14:36:01;3.63;;;3.23;;
16826;SDS011;8530;49.540;8.576;2023-03-19T14:38:31;16.23;;;3.70;;
16826;SDS011;8530;49.540;8.576;2023-03-19T14:41:01;5.40;;;4.00;;
16826;SDS011;8530;49.540;8.576;2023-03-19T14:43:35;4.43;;;3.90;;
16826;SDS011;8530;49.540;8.576;2023-03-19T14:46:32;3.30;;;2.57;;
16826;SDS011;8530;49.540;8.576;2023-03-19T14:52:05;7.30;;;6.63;;
16826;SDS011;8530;49.540;8.576;2023-03-19T14:54:34;4.33;;;3.50;;
16826;SDS011;8530;49.540;8.576;2023-03-19T14:57:06;8.03;;;2.80;;
16826;SDS011;8530;49.540;8.576;2023-03-19T14:59:37;3.30;;;2.53;;
16826;SDS011;8530;49.540;8.576;2023-03-19T15:02:04;6.63;;;3.97;;
16826;SDS011;8530;49.540;8.576;2023-03-19T15:04:46;5.53;;;4.10;;
16826;SDS011;8530;49.540;8.576;2023-03-19T15:07:16;5.90;;;3.23;;
16826;SDS011;8530;49.540;8.576;2023-03-19T15:09:45;5.80;;;2.87;;
16826;SDS011;8530;49.540;8.576;2023-03-19T15:12:29;2.83;;;2.53;;
16826;SDS011;8530;49.540;8.576;2023-03-19T15:15:14;4.50;;;2.83;;
16826;SDS011;8530;49.540;8.576;2023-03-19T15:17:59;7.60;;;2.80;;
16826;SDS011;8530;49.540;8.576;2023-03-19T15:20:34;4.53;;;3.10;;
16826;SDS011;8530;49.540;8.576;2023-03-19T15:23:02;3.67;;;3.00;;
16826;SDS011;8530;49.540;8.576;2023-03-19T15:25:33;3.23;;;2.93;;
16826;SDS011;8530;49.540;8.576;2023-03-19T15:28:03;5.60;;;2.57;;